createdAt,value
2024-01-12T00:00:48.454Z,66.04
2024-01-12T00:03:16.391Z,66.50
2024-01-12T00:05:46.423Z,66.30
2024-01-12T00:08:14.510Z,66.19
2024-01-12T00:10:42.438Z,65.56
2024-01-12T00:13:11.871Z,66.27
2024-01-12T00:15:39.822Z,65.77
2024-01-12T00:18:07.756Z,66.87
2024-01-12T00:20:37.669Z,68.02
2024-01-12T00:23:05.848Z,67.98
2024-01-12T00:25:33.930Z,67.38
2024-01-12T00:28:01.748Z,67.19
2024-01-12T00:30:31.011Z,67.90
2024-01-12T00:32:58.984Z,67.25
2024-01-12T00:35:26.976Z,67.70
2024-01-12T00:37:54.962Z,66.73
2024-01-12T00:40:22.821Z,66.68
2024-01-12T00:42:51.444Z,66.27
2024-01-12T00:45:19.468Z,66.64
2024-01-12T00:47:48.979Z,66.28
2024-01-12T00:50:17.080Z,67.84
2024-01-12T00:52:45.040Z,67.19
2024-01-12T00:55:14.298Z,66.59
2024-01-12T00:57:42.187Z,66.24
2024-01-12T01:00:10.898Z,66.34
2024-01-12T01:02:38.851Z,66.30
2024-01-12T01:05:09.268Z,67.06
2024-01-12T01:07:37.136Z,66.35
2024-01-12T01:10:05.424Z,66.56
2024-01-12T01:12:33.361Z,65.59
2024-01-12T01:15:01.404Z,66.40
2024-01-12T01:17:29.432Z,66.09
2024-01-12T01:19:57.477Z,66.38
2024-01-12T01:22:26.875Z,65.89
2024-01-12T01:24:54.731Z,67.20
2024-01-12T01:27:22.658Z,66.94
2024-01-12T01:29:50.595Z,66.39
2024-01-12T01:32:18.924Z,66.54
2024-01-12T01:34:47.535Z,66.73
2024-01-12T01:37:15.569Z,66.91
2024-01-12T01:39:44.829Z,65.55
2024-01-12T01:42:12.690Z,65.98
2024-01-12T01:44:40.574Z,65.94
2024-01-12T01:47:09.157Z,66.27
2024-01-12T01:49:37.394Z,65.31
2024-01-12T01:52:06.182Z,65.95
2024-01-12T01:54:35.159Z,65.94
2024-01-12T01:57:06.446Z,65.93
2024-01-12T01:59:36.467Z,65.85
2024-01-12T02:02:06.331Z,66.03
2024-01-12T02:04:34.302Z,66.14
2024-01-12T02:07:03.695Z,66.26
2024-01-12T02:09:32.837Z,66.32
2024-01-12T02:12:00.794Z,66.71
2024-01-12T02:14:30.094Z,66.54
2024-01-12T02:16:58.130Z,66.86
2024-01-12T02:19:26.001Z,66.87
2024-01-12T02:21:55.404Z,67.33
2024-01-12T02:24:23.287Z,66.00
2024-01-12T02:26:51.268Z,66.33
2024-01-12T02:29:20.094Z,65.89
2024-01-12T02:31:50.168Z,66.50
2024-01-12T02:34:18.497Z,66.35
2024-01-12T02:36:46.341Z,65.72
2024-01-12T02:39:16.093Z,65.59
2024-01-12T02:41:44.047Z,66.08
2024-01-12T02:44:11.952Z,66.30
2024-01-12T02:46:40.135Z,66.16
2024-01-12T02:49:09.365Z,65.65
2024-01-12T02:51:37.280Z,65.00
2024-01-12T02:54:05.691Z,66.12
2024-01-12T02:56:35.090Z,66.57
2024-01-12T02:59:03.020Z,66.97
2024-01-12T03:01:30.956Z,66.45
2024-01-12T03:03:58.884Z,65.75
2024-01-12T03:06:27.007Z,66.26
2024-01-12T03:08:55.046Z,65.91
2024-01-12T03:11:23.024Z,65.56
2024-01-12T03:13:52.460Z,65.67
2024-01-12T03:16:21.916Z,66.18
2024-01-12T03:18:51.108Z,65.67
2024-01-12T03:21:19.940Z,66.44
2024-01-12T03:23:49.226Z,65.96
2024-01-12T03:26:17.409Z,66.57
2024-01-12T03:28:45.367Z,67.28
2024-01-12T03:31:16.248Z,67.72
2024-01-12T03:33:45.813Z,66.76
2024-01-12T03:36:15.170Z,67.43
2024-01-12T03:38:43.089Z,67.88
2024-01-12T03:41:11.652Z,67.87
2024-01-12T03:43:39.589Z,67.17
2024-01-12T03:46:07.497Z,66.99
2024-01-12T03:48:37.250Z,68.20
2024-01-12T03:51:06.981Z,67.04
2024-01-12T03:53:34.978Z,66.95
2024-01-12T03:56:02.880Z,66.44
2024-01-12T03:58:31.618Z,66.28
2024-01-12T04:00:59.536Z,66.07
2024-01-12T04:03:27.594Z,67.73
2024-01-12T04:05:56.917Z,66.70
2024-01-12T04:08:24.911Z,67.30
2024-01-12T04:10:52.961Z,66.10
2024-01-12T04:13:20.823Z,66.10
2024-01-12T04:15:48.922Z,65.72
2024-01-12T04:18:16.952Z,65.64
2024-01-12T04:20:45.010Z,66.72
2024-01-12T04:23:14.549Z,65.86
2024-01-12T04:25:42.438Z,65.03
2024-01-12T04:28:10.336Z,64.74
2024-01-12T04:30:38.243Z,65.58
2024-01-12T04:33:06.583Z,65.31
2024-01-12T04:35:34.560Z,65.13
2024-01-12T04:38:02.509Z,65.06
2024-01-12T04:40:31.779Z,66.81
2024-01-12T04:42:59.694Z,66.16
2024-01-12T04:45:27.578Z,66.30
2024-01-12T04:47:55.513Z,65.77
2024-01-12T04:50:23.657Z,65.30
2024-01-12T04:52:53.242Z,65.39
2024-01-12T04:55:21.133Z,65.08
2024-01-12T04:57:50.659Z,65.49
2024-01-12T05:00:20.057Z,65.34
2024-01-12T05:02:48.279Z,64.80
2024-01-12T05:05:16.445Z,65.58
2024-01-12T05:07:44.431Z,65.15
2024-01-12T05:10:12.369Z,65.63
2024-01-12T05:12:40.304Z,65.32
2024-01-12T05:15:10.590Z,65.42
2024-01-12T05:17:39.031Z,65.24
2024-01-12T05:20:08.884Z,64.93
2024-01-12T05:22:37.535Z,65.05
2024-01-12T05:25:05.985Z,65.35
2024-01-12T05:27:33.986Z,65.07
2024-01-12T05:30:04.057Z,64.95
2024-01-12T05:32:34.390Z,64.25
2024-01-12T05:35:02.671Z,64.47
2024-01-12T05:37:30.594Z,63.51
2024-01-12T05:39:58.547Z,64.01
2024-01-12T05:42:26.529Z,64.42
2024-01-12T05:44:54.488Z,63.86
2024-01-12T05:47:22.435Z,64.18
2024-01-12T05:49:51.935Z,63.94
2024-01-12T05:52:19.970Z,64.05
2024-01-12T05:54:47.869Z,64.24
2024-01-12T05:57:14.787Z,65.10
2024-01-12T05:59:43.603Z,65.10
2024-01-12T06:02:14.843Z,65.29
2024-01-12T06:04:43.142Z,64.84
2024-01-12T06:07:12.438Z,64.59
2024-01-12T06:09:40.404Z,63.89
2024-01-12T06:12:10.911Z,63.92
2024-01-12T06:14:38.884Z,63.85
2024-01-12T06:17:06.966Z,63.47
2024-01-12T06:19:35.004Z,62.73
2024-01-12T06:22:02.971Z,63.52
2024-01-12T06:24:32.259Z,62.99
2024-01-12T06:27:02.916Z,64.17
2024-01-12T06:29:32.823Z,64.13
2024-01-12T06:32:00.799Z,64.75
2024-01-12T06:34:28.705Z,65.33
2024-01-12T06:36:57.818Z,64.95
2024-01-12T06:39:25.867Z,64.70
2024-01-12T06:41:55.228Z,64.12
2024-01-12T06:44:23.248Z,64.39
2024-01-12T06:46:51.284Z,64.75
2024-01-12T06:49:19.245Z,64.47
2024-01-12T06:51:47.837Z,64.06
2024-01-12T06:54:17.501Z,64.08
2024-01-12T06:56:46.670Z,63.53
2024-01-12T06:59:16.007Z,62.89
2024-01-12T07:01:43.903Z,65.37
2024-01-12T07:04:11.948Z,63.72
2024-01-12T07:06:40.344Z,64.03
2024-01-12T07:09:13.023Z,64.04
2024-01-12T07:11:43.470Z,63.83
2024-01-12T07:14:11.760Z,64.01
2024-01-12T07:16:41.035Z,64.32
2024-01-12T07:19:09.541Z,63.52
2024-01-12T07:21:37.752Z,64.11
2024-01-12T07:24:06.227Z,64.39
2024-01-12T07:26:34.337Z,63.69
2024-01-12T07:29:02.398Z,63.65
2024-01-12T07:31:31.282Z,64.32
2024-01-12T07:34:00.696Z,64.21
2024-01-12T07:36:28.856Z,64.10
2024-01-12T07:38:58.199Z,64.00
2024-01-12T07:41:28.011Z,63.98
2024-01-12T07:43:56.215Z,63.71
2024-01-12T07:46:24.582Z,64.13
2024-01-12T07:48:53.466Z,63.58
2024-01-12T07:51:22.885Z,63.99
2024-01-12T07:53:50.933Z,63.57
2024-01-12T07:56:18.931Z,64.99
2024-01-12T07:58:47.168Z,64.10
2024-01-12T08:01:15.361Z,64.28
2024-01-12T08:03:43.531Z,65.31
2024-01-12T08:06:11.930Z,64.43
2024-01-12T08:08:41.309Z,64.49
2024-01-12T08:11:23.121Z,64.76
2024-01-12T08:13:55.994Z,64.30
2024-01-12T08:16:23.858Z,64.73
2024-01-12T08:18:51.752Z,64.48
2024-01-12T08:21:19.679Z,64.28
2024-01-12T08:23:49.027Z,64.31
2024-01-12T08:26:17.051Z,63.43
2024-01-12T08:28:44.986Z,63.05
2024-01-12T08:31:13.490Z,64.00
2024-01-12T08:33:43.469Z,64.60
2024-01-12T08:36:11.497Z,63.39
2024-01-12T08:38:39.587Z,64.68
2024-01-12T08:41:08.866Z,64.92
2024-01-12T08:43:38.082Z,63.96
2024-01-12T08:46:09.741Z,64.31
2024-01-12T08:48:38.100Z,63.61
2024-01-12T08:51:08.609Z,63.23
2024-01-12T08:53:38.405Z,64.56
2024-01-12T08:56:08.975Z,63.48
2024-01-12T08:58:39.199Z,63.58
2024-01-12T09:01:08.430Z,63.00
2024-01-12T09:03:36.452Z,62.28
2024-01-12T09:06:04.777Z,62.43
2024-01-12T09:08:32.774Z,63.34
2024-01-12T09:11:02.106Z,63.89
2024-01-12T09:13:29.975Z,63.64
2024-01-12T09:15:59.287Z,63.46
2024-01-12T09:18:27.410Z,64.20
2024-01-12T09:20:55.482Z,63.73
2024-01-12T09:23:23.480Z,63.05
2024-01-12T09:25:55.336Z,63.30
2024-01-12T09:28:23.529Z,63.26
2024-01-12T09:30:51.670Z,62.74
2024-01-12T09:33:21.237Z,63.00
2024-01-12T09:35:49.349Z,63.49
2024-01-12T09:38:17.353Z,65.24
2024-01-12T09:40:46.568Z,62.96
2024-01-12T09:43:15.942Z,63.63
2024-01-12T09:45:46.360Z,63.53
2024-01-12T09:48:15.037Z,63.53
2024-01-12T09:50:45.874Z,63.04
2024-01-12T09:53:13.851Z,63.25
2024-01-12T09:55:41.819Z,63.51
2024-01-12T09:58:12.181Z,63.67
2024-01-12T10:00:42.624Z,62.28
2024-01-12T10:03:12.589Z,61.80
2024-01-12T10:05:42.608Z,63.05
2024-01-12T10:08:12.325Z,63.20
2024-01-12T10:10:41.376Z,62.44
2024-01-12T10:13:09.306Z,62.87
2024-01-12T10:15:42.047Z,62.66
2024-01-12T10:18:10.024Z,62.29
2024-01-12T10:20:38.774Z,62.60
2024-01-12T10:23:06.935Z,63.41
2024-01-12T10:25:37.186Z,62.74
2024-01-12T10:28:05.395Z,62.72
2024-01-12T10:30:33.075Z,64.62
2024-01-12T10:33:02.309Z,63.69
2024-01-12T10:35:30.288Z,63.38
2024-01-12T10:38:00.630Z,62.82
2024-01-12T10:40:28.571Z,62.77
2024-01-12T10:42:58.986Z,62.76
2024-01-12T10:45:27.922Z,62.57
2024-01-12T10:48:02.837Z,62.89
2024-01-12T10:50:35.126Z,63.60
2024-01-12T10:53:16.555Z,64.73
2024-01-12T10:55:55.140Z,65.05
2024-01-12T10:58:25.439Z,64.37
2024-01-12T11:00:54.457Z,64.38
2024-01-12T11:03:23.453Z,65.19
2024-01-12T11:05:52.834Z,66.08
2024-01-12T11:08:22.871Z,64.65
2024-01-12T11:10:53.894Z,63.99
2024-01-12T11:13:22.893Z,65.56
2024-01-12T11:15:53.880Z,64.60
2024-01-12T11:18:21.984Z,65.03
2024-01-12T11:20:50.090Z,64.76
2024-01-12T11:23:18.984Z,64.46
2024-01-12T11:25:46.970Z,64.12
2024-01-12T11:28:16.645Z,63.82
2024-01-12T11:30:44.630Z,64.87
2024-01-12T11:33:18.990Z,65.04
2024-01-12T11:35:52.614Z,64.97
2024-01-12T11:38:20.924Z,63.73
2024-01-12T11:40:50.729Z,64.19
2024-01-12T11:43:18.923Z,64.47
2024-01-12T11:45:47.421Z,65.34
2024-01-12T11:48:17.260Z,64.96
2024-01-12T11:50:45.469Z,65.23
2024-01-12T11:53:14.568Z,63.47
2024-01-12T11:55:42.730Z,63.72
2024-01-12T11:58:10.659Z,63.79
2024-01-12T12:00:37.573Z,65.34
2024-01-12T12:03:05.945Z,64.63
2024-01-12T12:05:35.705Z,64.47
2024-01-12T12:08:05.155Z,65.15
2024-01-12T12:10:40.957Z,66.10
2024-01-12T12:13:13.850Z,65.31
2024-01-12T12:15:41.727Z,64.47
2024-01-12T12:18:09.928Z,64.69
2024-01-12T12:20:39.451Z,64.48
2024-01-12T12:23:08.595Z,65.50
2024-01-12T12:25:36.722Z,64.58
2024-01-12T12:28:04.989Z,65.02
2024-01-12T12:30:33.120Z,64.15
2024-01-12T12:33:01.832Z,64.95
2024-01-12T12:35:30.012Z,64.91
2024-01-12T12:38:02.989Z,64.69
2024-01-12T12:40:31.440Z,63.70
2024-01-12T12:43:00.101Z,63.74
2024-01-12T12:45:28.647Z,64.77
2024-01-12T12:47:56.855Z,66.97
2024-01-12T12:50:25.625Z,65.47
2024-01-12T12:52:53.780Z,65.48
2024-01-12T12:55:23.278Z,65.43
2024-01-12T12:57:52.195Z,65.50
2024-01-12T13:00:20.457Z,65.26
2024-01-12T13:02:49.124Z,64.60
2024-01-12T13:05:19.031Z,63.93
2024-01-12T13:07:47.067Z,64.02
2024-01-12T13:10:15.196Z,64.13
2024-01-12T13:12:44.532Z,64.41
2024-01-12T13:15:13.106Z,64.42
2024-01-12T13:17:42.010Z,65.25
2024-01-12T13:20:10.984Z,66.36
2024-01-12T13:22:38.948Z,65.59
2024-01-12T13:25:07.917Z,64.98
2024-01-12T13:27:38.247Z,64.60
2024-01-12T13:30:10.727Z,66.01
2024-01-12T13:32:39.188Z,66.34
2024-01-12T13:35:08.745Z,65.26
2024-01-12T13:37:36.728Z,64.62
2024-01-12T13:40:05.241Z,64.80
2024-01-12T13:42:33.162Z,66.31
2024-01-12T13:45:02.227Z,65.69
2024-01-12T13:47:32.576Z,66.33
2024-01-12T13:50:00.718Z,65.75
2024-01-12T13:52:28.711Z,64.26
2024-01-12T13:54:56.590Z,64.83
2024-01-12T13:57:24.490Z,65.98
2024-01-12T13:59:52.415Z,64.44
2024-01-12T14:02:20.609Z,64.27
2024-01-12T14:05:00.843Z,66.03
2024-01-12T14:07:38.552Z,65.29
2024-01-12T14:10:07.417Z,66.03
2024-01-12T14:12:36.075Z,65.72
2024-01-12T14:15:04.331Z,66.08
2024-01-12T14:17:32.476Z,66.31
2024-01-12T14:20:02.326Z,65.86
2024-01-12T14:22:30.389Z,65.71
2024-01-12T14:24:58.307Z,66.15
2024-01-12T14:27:26.436Z,65.45
2024-01-12T14:29:56.005Z,65.23
2024-01-12T14:32:24.488Z,65.29
2024-01-12T14:34:52.688Z,64.15
2024-01-12T14:37:23.558Z,63.54
2024-01-12T14:39:52.044Z,63.06
2024-01-12T14:42:19.969Z,62.94
2024-01-12T14:44:48.468Z,63.36
2024-01-12T14:47:16.376Z,63.35
2024-01-12T14:49:44.340Z,63.10
2024-01-12T14:52:13.190Z,62.80
2024-01-12T14:54:45.471Z,62.65
2024-01-12T14:57:13.388Z,63.10
2024-01-12T14:59:41.852Z,62.75
2024-01-12T15:02:10.192Z,63.21
2024-01-12T15:04:38.264Z,62.60
2024-01-12T15:07:08.819Z,63.05
2024-01-12T15:09:36.947Z,63.73
2024-01-12T15:12:07.704Z,64.06
2024-01-12T15:14:36.456Z,64.27
2024-01-12T15:17:04.714Z,64.08
2024-01-12T15:19:32.706Z,63.67
2024-01-12T15:22:00.860Z,63.69
2024-01-12T15:24:28.784Z,64.14
2024-01-12T15:26:56.914Z,63.99
2024-01-12T15:29:26.226Z,64.07
2024-01-12T15:31:54.129Z,63.13
2024-01-12T15:34:22.223Z,63.90
2024-01-12T15:36:50.241Z,63.46
2024-01-12T15:39:18.112Z,63.75
2024-01-12T15:41:46.102Z,63.15
2024-01-12T15:44:14.165Z,63.67
2024-01-12T15:46:43.385Z,64.74
2024-01-12T15:49:12.735Z,64.41
2024-01-12T15:51:42.028Z,64.60
2024-01-12T15:54:10.038Z,63.44
2024-01-12T15:56:38.339Z,64.34
2024-01-12T15:59:06.665Z,64.70
2024-01-12T16:01:34.520Z,64.09
2024-01-12T16:04:03.854Z,64.66
2024-01-12T16:06:32.370Z,65.64
2024-01-12T16:09:00.414Z,64.61
2024-01-12T16:11:28.887Z,66.05
2024-01-12T16:13:56.865Z,65.40
2024-01-12T16:16:24.769Z,64.55
2024-01-12T16:19:00.166Z,64.53
2024-01-12T16:21:37.481Z,64.68
2024-01-12T16:24:05.758Z,64.18
2024-01-12T16:26:38.621Z,64.53
2024-01-12T16:29:06.704Z,64.21
2024-01-12T16:31:34.573Z,64.84
2024-01-12T16:34:02.677Z,65.13
2024-01-12T16:36:30.712Z,64.74
2024-01-12T16:39:00.039Z,65.06
2024-01-12T16:41:27.958Z,65.40
2024-01-12T16:43:55.858Z,65.64
2024-01-12T16:46:23.770Z,66.84
2024-01-12T16:48:51.904Z,65.23
2024-01-12T16:51:19.976Z,64.91
2024-01-12T16:53:47.914Z,66.51
2024-01-12T16:56:17.226Z,66.92
2024-01-12T16:58:45.118Z,66.95
2024-01-12T17:01:13.050Z,65.99
2024-01-12T17:03:41.025Z,65.72
2024-01-12T17:06:09.283Z,64.99
2024-01-12T17:08:37.324Z,65.59
2024-01-12T17:11:07.991Z,65.10
2024-01-12T17:13:37.282Z,64.77
2024-01-12T17:16:05.766Z,65.75
2024-01-12T17:18:33.860Z,64.49
2024-01-12T17:21:02.077Z,65.27
2024-01-12T17:23:30.243Z,65.63
2024-01-12T17:25:58.258Z,66.14
2024-01-12T17:28:26.395Z,66.33
2024-01-12T17:30:55.829Z,66.60
2024-01-12T17:33:23.967Z,65.77
2024-01-12T17:35:52.102Z,65.80
2024-01-12T17:38:20.126Z,66.08
2024-01-12T17:40:47.994Z,66.26
2024-01-12T17:43:15.871Z,65.73
2024-01-12T17:45:43.774Z,65.43
2024-01-12T17:48:13.193Z,66.10
2024-01-12T17:50:41.639Z,65.87
2024-01-12T17:53:09.545Z,66.15
2024-01-12T17:55:37.436Z,66.62
2024-01-12T17:58:05.594Z,65.81
2024-01-12T18:00:33.455Z,66.03
2024-01-12T18:03:01.412Z,65.82
2024-01-12T18:05:32.701Z,67.46
2024-01-12T18:08:00.698Z,66.90
2024-01-12T18:10:28.797Z,67.16
2024-01-12T18:12:56.663Z,66.95
2024-01-12T18:15:24.539Z,67.05
2024-01-12T18:17:52.492Z,66.56
2024-01-12T18:20:21.723Z,66.15
2024-01-12T18:22:50.978Z,67.24
2024-01-12T18:25:18.913Z,68.55
2024-01-12T18:27:46.797Z,67.35
2024-01-12T18:30:15.176Z,66.30
2024-01-12T18:32:43.323Z,66.54
2024-01-12T18:35:11.360Z,67.34
2024-01-12T18:37:40.742Z,66.22
2024-01-12T18:40:10.991Z,67.66
2024-01-12T18:42:38.844Z,67.75
2024-01-12T18:45:07.927Z,68.97
2024-01-12T18:47:36.003Z,68.08
2024-01-12T18:50:04.184Z,67.81
2024-01-12T18:52:32.055Z,68.55
2024-01-12T18:54:59.950Z,68.76
2024-01-12T18:57:29.384Z,68.57
2024-01-12T18:59:57.338Z,67.05
2024-01-12T19:02:25.328Z,68.57
2024-01-12T19:04:53.245Z,67.13
2024-01-12T19:07:21.072Z,66.86
2024-01-12T19:09:49.092Z,65.50
2024-01-12T19:12:17.040Z,68.21
2024-01-12T19:14:46.571Z,67.33
2024-01-12T19:17:14.639Z,66.73
2024-01-12T19:19:42.678Z,66.97
2024-01-12T19:22:10.611Z,66.20
2024-01-12T19:24:42.633Z,65.85
2024-01-12T19:27:10.601Z,66.05
2024-01-12T19:32:11.589Z,67.34
2024-01-12T19:34:41.577Z,66.97
2024-01-12T19:37:09.956Z,65.72
2024-01-12T19:39:37.888Z,66.21
2024-01-12T19:42:06.364Z,66.18
2024-01-12T19:44:34.734Z,65.63
2024-01-12T19:47:02.630Z,65.18
2024-01-12T19:49:31.977Z,65.75
2024-01-12T19:51:59.958Z,65.09
2024-01-12T19:54:27.839Z,65.26
2024-01-12T19:56:55.768Z,66.25
2024-01-12T19:59:23.684Z,65.91
2024-01-12T20:01:51.871Z,66.36
2024-01-12T20:04:26.464Z,65.22
2024-01-12T20:07:02.662Z,64.51
2024-01-12T20:09:30.842Z,65.91
2024-01-12T20:11:58.747Z,65.14
2024-01-12T20:14:26.731Z,64.40
2024-01-12T20:16:54.909Z,67.59
2024-01-12T20:19:23.061Z,65.36
2024-01-12T20:21:51.260Z,66.79
2024-01-12T20:24:20.879Z,65.12
2024-01-12T20:26:49.158Z,65.67
2024-01-12T20:29:17.058Z,64.28
2024-01-12T20:31:45.876Z,64.33
2024-01-12T20:34:14.002Z,64.90
2024-01-12T20:36:41.968Z,63.73
2024-01-12T20:39:10.198Z,64.05
2024-01-12T20:41:39.548Z,64.58
2024-01-12T20:44:07.596Z,64.03
2024-01-12T20:46:35.668Z,63.43
2024-01-12T20:49:03.678Z,64.09
2024-01-12T20:51:31.806Z,64.13
2024-01-12T20:53:59.770Z,63.77
2024-01-12T20:56:27.690Z,63.78
2024-01-12T20:58:56.939Z,63.55
2024-01-12T21:01:25.121Z,64.98
2024-01-12T21:03:53.243Z,63.88
2024-01-12T21:06:21.418Z,64.76
2024-01-12T21:08:49.445Z,64.34
2024-01-12T21:11:17.354Z,63.89
2024-01-12T21:13:45.217Z,64.88
2024-01-12T21:16:15.132Z,66.05
2024-01-12T21:18:43.203Z,64.45
2024-01-12T21:21:12.752Z,64.01
2024-01-12T21:23:40.779Z,63.89
2024-01-12T21:26:08.732Z,64.30
2024-01-12T21:28:36.616Z,64.09
2024-01-12T21:31:04.873Z,64.80
2024-01-12T21:33:34.338Z,64.06
2024-01-12T21:36:02.460Z,64.70
2024-01-12T21:38:30.375Z,63.49
2024-01-12T21:40:58.383Z,65.11
2024-01-12T21:43:26.313Z,63.33
2024-01-12T21:45:54.367Z,63.21
2024-01-12T21:48:22.345Z,63.04
2024-01-12T21:50:51.707Z,62.96
2024-01-12T21:53:19.617Z,63.60
2024-01-12T21:55:47.510Z,64.33
2024-01-12T21:58:15.408Z,63.23
2024-01-12T22:00:43.293Z,64.54
2024-01-12T22:03:11.411Z,63.96
2024-01-12T22:05:39.414Z,63.89
2024-01-12T22:08:08.791Z,63.65
2024-01-12T22:10:36.698Z,63.44
2024-01-12T22:13:04.713Z,63.35
2024-01-12T22:15:32.576Z,63.11
2024-01-12T22:18:00.686Z,64.59
2024-01-12T22:20:28.728Z,64.87
2024-01-12T22:22:56.623Z,65.61
2024-01-12T22:25:25.865Z,64.49
2024-01-12T22:27:53.792Z,64.78
2024-01-12T22:30:21.983Z,64.40
2024-01-12T22:32:50.050Z,64.22
2024-01-12T22:35:18.063Z,63.84
2024-01-12T22:37:46.373Z,64.03
2024-01-12T22:40:14.369Z,64.30
2024-01-12T22:42:43.650Z,63.76
2024-01-12T22:45:12.101Z,63.82
2024-01-12T22:47:41.423Z,65.28
2024-01-12T22:50:10.054Z,64.85
2024-01-12T22:52:38.941Z,64.31
2024-01-12T22:55:08.044Z,65.54
2024-01-12T22:57:35.936Z,65.58
2024-01-12T23:00:25.262Z,65.99
2024-01-12T23:02:53.864Z,65.73
2024-01-12T23:05:22.357Z,66.67
2024-01-12T23:07:50.261Z,64.80
2024-01-12T23:10:18.517Z,63.96
2024-01-12T23:12:46.484Z,64.61
2024-01-12T23:15:15.803Z,63.53
2024-01-12T23:17:44.562Z,63.42
2024-01-12T23:20:15.472Z,64.32
2024-01-12T23:22:45.438Z,65.04
2024-01-12T23:25:12.687Z,65.22
2024-01-12T23:27:41.718Z,64.05
2024-01-12T23:30:10.315Z,64.15
2024-01-12T23:32:39.996Z,64.03
2024-01-12T23:35:09.383Z,64.05
2024-01-12T23:37:37.369Z,62.75
2024-01-12T23:40:05.776Z,62.76
2024-01-12T23:42:33.673Z,62.33
2024-01-12T23:45:01.625Z,63.40
2024-01-12T23:47:29.704Z,62.86
2024-01-12T23:49:59.071Z,63.10
2024-01-12T23:52:27.084Z,62.68
2024-01-12T23:54:54.960Z,64.16
2024-01-12T23:57:22.920Z,63.97
2024-01-12T23:59:50.852Z,63.13
